sensor_id;sensor_type;location;lat;lon;timestamp;temperature;humidity
13652;DHT22;6899;51.546;6.912;2022-11-02T00:00:20;12.00;99.90
13652;DHT22;6899;51.546;6.912;2022-11-02T00:02:47;12.10;99.90
13652;DHT22;6899;51.546;6.912;2022-11-02T00:05:16;12.20;99.90
13652;DHT22;6899;51.546;6.912;2022-11-02T00:07:48;12.20;99.90
13652;DHT22;6899;51.546;6.912;2022-11-02T00:10:18;12.20;99.90
13652;DHT22;6899;51.546;6.912;2022-11-02T00:12:51;12.20;99.90
13652;DHT22;6899;51.546;6.912;2022-11-02T00:15:19;12.20;99.90
13652;DHT22;6899;51.546;6.912;2022-11-02T00:17:51;12.30;99.90
13652;DHT22;6899;51.546;6.912;2022-11-02T00:20:20;12.20;99.90
13652;DHT22;6899;51.546;6.912;2022-11-02T00:22:50;12.00;99.90
13652;DHT22;6899;51.546;6.912;2022-11-02T00:25:20;11.80;99.90
13652;DHT22;6899;51.546;6.912;2022-11-02T00:27:48;11.60;99.90
13652;DHT22;6899;51.546;6.912;2022-11-02T00:30:15;11.50;99.90
13652;DHT22;6899;51.546;6.912;2022-11-02T00:32:46;11.30;99.90
13652;DHT22;6899;51.546;6.912;2022-11-02T00:35:13;11.30;99.90
13652;DHT22;6899;51.546;6.912;2022-11-02T00:37:41;11.20;99.90
13652;DHT22;6899;51.546;6.912;2022-11-02T00:40:08;11.30;99.90
13652;DHT22;6899;51.546;6.912;2022-11-02T00:42:35;11.20;99.90
13652;DHT22;6899;51.546;6.912;2022-11-02T00:45:03;11.30;99.90
13652;DHT22;6899;51.546;6.912;2022-11-02T00:47:30;11.30;99.90
13652;DHT22;6899;51.546;6.912;2022-11-02T00:50:03;11.30;99.90
13652;DHT22;6899;51.546;6.912;2022-11-02T00:52:30;11.60;99.90
13652;DHT22;6899;51.546;6.912;2022-11-02T00:54:58;11.60;99.90
13652;DHT22;6899;51.546;6.912;2022-11-02T00:57:25;11.70;99.90
13652;DHT22;6899;51.546;6.912;2022-11-02T00:59:52;11.80;99.90
13652;DHT22;6899;51.546;6.912;2022-11-02T01:02:19;11.90;99.90
13652;DHT22;6899;51.546;6.912;2022-11-02T01:04:46;12.10;99.90
13652;DHT22;6899;51.546;6.912;2022-11-02T01:07:15;12.30;99.90
13652;DHT22;6899;51.546;6.912;2022-11-02T01:09:42;12.40;99.90
13652;DHT22;6899;51.546;6.912;2022-11-02T01:12:13;12.30;99.90
13652;DHT22;6899;51.546;6.912;2022-11-02T01:14:45;12.30;99.90
13652;DHT22;6899;51.546;6.912;2022-11-02T01:17:16;12.30;99.90
13652;DHT22;6899;51.546;6.912;2022-11-02T01:19:43;12.30;99.90
13652;DHT22;6899;51.546;6.912;2022-11-02T01:22:10;12.30;99.90
13652;DHT22;6899;51.546;6.912;2022-11-02T01:24:37;12.10;99.90
13652;DHT22;6899;51.546;6.912;2022-11-02T01:27:03;12.10;99.90
13652;DHT22;6899;51.546;6.912;2022-11-02T01:29:32;12.00;99.90
13652;DHT22;6899;51.546;6.912;2022-11-02T01:31:58;12.20;99.90
13652;DHT22;6899;51.546;6.912;2022-11-02T01:34:25;12.30;99.90
13652;DHT22;6899;51.546;6.912;2022-11-02T01:36:52;12.30;99.90
13652;DHT22;6899;51.546;6.912;2022-11-02T01:39:19;12.30;99.90
13652;DHT22;6899;51.546;6.912;2022-11-02T01:41:50;12.20;99.90
13652;DHT22;6899;51.546;6.912;2022-11-02T01:44:26;11.90;99.90
13652;DHT22;6899;51.546;6.912;2022-11-02T01:46:58;11.80;99.90
13652;DHT22;6899;51.546;6.912;2022-11-02T01:49:27;11.70;99.90
13652;DHT22;6899;51.546;6.912;2022-11-02T01:51:57;11.60;99.90
13652;DHT22;6899;51.546;6.912;2022-11-02T01:54:28;11.60;99.90
13652;DHT22;6899;51.546;6.912;2022-11-02T01:56:59;11.70;99.90
13652;DHT22;6899;51.546;6.912;2022-11-02T01:59:37;11.70;99.90
13652;DHT22;6899;51.546;6.912;2022-11-02T02:02:12;11.80;99.90
13652;DHT22;6899;51.546;6.912;2022-11-02T02:04:40;11.90;99.90
13652;DHT22;6899;51.546;6.912;2022-11-02T02:07:07;11.90;99.90
13652;DHT22;6899;51.546;6.912;2022-11-02T02:09:34;12.00;99.90
13652;DHT22;6899;51.546;6.912;2022-11-02T02:12:01;11.90;99.90
13652;DHT22;6899;51.546;6.912;2022-11-02T02:14:28;11.90;99.90
13652;DHT22;6899;51.546;6.912;2022-11-02T02:17:08;11.90;99.90
13652;DHT22;6899;51.546;6.912;2022-11-02T02:19:40;11.80;99.90
13652;DHT22;6899;51.546;6.912;2022-11-02T02:22:45;11.70;99.90
13652;DHT22;6899;51.546;6.912;2022-11-02T02:25:49;11.50;99.90
13652;DHT22;6899;51.546;6.912;2022-11-02T02:28:24;11.50;99.90
13652;DHT22;6899;51.546;6.912;2022-11-02T02:30:59;11.50;99.90
13652;DHT22;6899;51.546;6.912;2022-11-02T02:33:31;11.30;99.90
13652;DHT22;6899;51.546;6.912;2022-11-02T02:36:03;11.40;99.90
13652;DHT22;6899;51.546;6.912;2022-11-02T02:38:34;11.50;99.90
13652;DHT22;6899;51.546;6.912;2022-11-02T02:41:09;11.50;99.90
13652;DHT22;6899;51.546;6.912;2022-11-02T02:43:41;11.50;99.90
13652;DHT22;6899;51.546;6.912;2022-11-02T02:46:16;11.50;99.90
13652;DHT22;6899;51.546;6.912;2022-11-02T02:48:46;11.50;99.90
13652;DHT22;6899;51.546;6.912;2022-11-02T02:51:17;11.40;99.90
13652;DHT22;6899;51.546;6.912;2022-11-02T02:53:48;11.30;99.90
13652;DHT22;6899;51.546;6.912;2022-11-02T02:56:19;11.30;99.90
13652;DHT22;6899;51.546;6.912;2022-11-02T02:58:51;11.40;99.90
13652;DHT22;6899;51.546;6.912;2022-11-02T03:01:19;11.50;99.90
13652;DHT22;6899;51.546;6.912;2022-11-02T03:03:46;11.50;99.90
13652;DHT22;6899;51.546;6.912;2022-11-02T03:06:16;11.60;99.90
13652;DHT22;6899;51.546;6.912;2022-11-02T03:08:48;11.70;99.90
13652;DHT22;6899;51.546;6.912;2022-11-02T03:11:19;11.90;99.90
13652;DHT22;6899;51.546;6.912;2022-11-02T03:14:03;11.90;99.90
13652;DHT22;6899;51.546;6.912;2022-11-02T03:16:45;12.00;99.90
13652;DHT22;6899;51.546;6.912;2022-11-02T03:19:19;12.20;99.90
13652;DHT22;6899;51.546;6.912;2022-11-02T03:21:54;12.20;99.90
13652;DHT22;6899;51.546;6.912;2022-11-02T03:24:26;12.30;99.90
13652;DHT22;6899;51.546;6.912;2022-11-02T03:27:05;12.40;99.90
13652;DHT22;6899;51.546;6.912;2022-11-02T03:29:40;12.50;99.90
13652;DHT22;6899;51.546;6.912;2022-11-02T03:32:12;12.40;99.90
13652;DHT22;6899;51.546;6.912;2022-11-02T03:34:45;12.40;99.90
13652;DHT22;6899;51.546;6.912;2022-11-02T03:37:19;12.10;99.90
13652;DHT22;6899;51.546;6.912;2022-11-02T03:39:53;12.00;99.90
13652;DHT22;6899;51.546;6.912;2022-11-02T03:42:38;11.90;99.90
13652;DHT22;6899;51.546;6.912;2022-11-02T03:45:16;11.80;99.90
13652;DHT22;6899;51.546;6.912;2022-11-02T03:47:46;11.90;99.90
13652;DHT22;6899;51.546;6.912;2022-11-02T03:50:18;11.80;99.90
13652;DHT22;6899;51.546;6.912;2022-11-02T03:52:47;11.70;99.90
13652;DHT22;6899;51.546;6.912;2022-11-02T03:55:19;11.70;99.90
13652;DHT22;6899;51.546;6.912;2022-11-02T03:57:50;11.70;99.90
13652;DHT22;6899;51.546;6.912;2022-11-02T04:00:20;11.70;99.90
13652;DHT22;6899;51.546;6.912;2022-11-02T04:02:50;11.80;99.90
13652;DHT22;6899;51.546;6.912;2022-11-02T04:05:17;11.70;99.90
13652;DHT22;6899;51.546;6.912;2022-11-02T04:07:48;11.80;99.90
13652;DHT22;6899;51.546;6.912;2022-11-02T04:10:33;11.60;99.90
13652;DHT22;6899;51.546;6.912;2022-11-02T04:13:00;11.50;99.90
13652;DHT22;6899;51.546;6.912;2022-11-02T04:15:46;11.50;99.90
13652;DHT22;6899;51.546;6.912;2022-11-02T04:18:12;11.60;99.90
13652;DHT22;6899;51.546;6.912;2022-11-02T04:20:57;11.60;99.90
13652;DHT22;6899;51.546;6.912;2022-11-02T04:23:23;11.50;99.90
13652;DHT22;6899;51.546;6.912;2022-11-02T04:26:07;11.50;99.90
13652;DHT22;6899;51.546;6.912;2022-11-02T04:28:34;11.60;99.90
13652;DHT22;6899;51.546;6.912;2022-11-02T04:31:02;11.50;99.90
13652;DHT22;6899;51.546;6.912;2022-11-02T04:33:29;11.50;99.90
13652;DHT22;6899;51.546;6.912;2022-11-02T04:36:02;11.50;99.90
13652;DHT22;6899;51.546;6.912;2022-11-02T04:38:35;11.50;99.90
13652;DHT22;6899;51.546;6.912;2022-11-02T04:41:14;11.50;99.90
13652;DHT22;6899;51.546;6.912;2022-11-02T04:43:58;11.50;99.90
13652;DHT22;6899;51.546;6.912;2022-11-02T04:46:29;11.70;99.90
13652;DHT22;6899;51.546;6.912;2022-11-02T04:48:56;11.80;99.90
13652;DHT22;6899;51.546;6.912;2022-11-02T04:51:25;11.90;99.90
13652;DHT22;6899;51.546;6.912;2022-11-02T04:53:52;11.80;99.90
13652;DHT22;6899;51.546;6.912;2022-11-02T04:56:20;11.70;99.90
13652;DHT22;6899;51.546;6.912;2022-11-02T04:58:47;11.70;99.90
13652;DHT22;6899;51.546;6.912;2022-11-02T05:01:16;11.60;99.90
13652;DHT22;6899;51.546;6.912;2022-11-02T05:03:45;11.60;99.90
13652;DHT22;6899;51.546;6.912;2022-11-02T05:06:12;11.60;99.90
13652;DHT22;6899;51.546;6.912;2022-11-02T05:08:39;11.60;99.90
13652;DHT22;6899;51.546;6.912;2022-11-02T05:11:07;11.60;99.90
13652;DHT22;6899;51.546;6.912;2022-11-02T05:13:38;11.50;99.90
13652;DHT22;6899;51.546;6.912;2022-11-02T05:16:06;11.50;99.90
13652;DHT22;6899;51.546;6.912;2022-11-02T05:18:33;11.50;99.90
13652;DHT22;6899;51.546;6.912;2022-11-02T05:21:01;11.50;99.90
13652;DHT22;6899;51.546;6.912;2022-11-02T05:23:28;11.50;99.90
13652;DHT22;6899;51.546;6.912;2022-11-02T05:25:59;11.60;99.90
13652;DHT22;6899;51.546;6.912;2022-11-02T05:28:28;11.40;99.90
13652;DHT22;6899;51.546;6.912;2022-11-02T05:30:57;11.40;99.90
13652;DHT22;6899;51.546;6.912;2022-11-02T05:33:24;11.40;99.90
13652;DHT22;6899;51.546;6.912;2022-11-02T05:35:53;11.40;99.90
13652;DHT22;6899;51.546;6.912;2022-11-02T05:38:21;11.30;99.90
13652;DHT22;6899;51.546;6.912;2022-11-02T05:40:51;11.30;99.90
13652;DHT22;6899;51.546;6.912;2022-11-02T05:43:18;11.20;99.90
13652;DHT22;6899;51.546;6.912;2022-11-02T05:45:51;11.20;99.90
13652;DHT22;6899;51.546;6.912;2022-11-02T05:48:18;11.10;99.90
13652;DHT22;6899;51.546;6.912;2022-11-02T05:50:45;11.10;99.90
13652;DHT22;6899;51.546;6.912;2022-11-02T05:53:13;11.00;99.90
13652;DHT22;6899;51.546;6.912;2022-11-02T05:55:41;11.00;99.90
13652;DHT22;6899;51.546;6.912;2022-11-02T05:58:08;10.90;99.90
13652;DHT22;6899;51.546;6.912;2022-11-02T06:00:35;10.80;99.90
13652;DHT22;6899;51.546;6.912;2022-11-02T06:03:02;10.80;99.90
13652;DHT22;6899;51.546;6.912;2022-11-02T06:05:29;10.80;99.90
13652;DHT22;6899;51.546;6.912;2022-11-02T06:07:59;10.80;99.90
13652;DHT22;6899;51.546;6.912;2022-11-02T06:10:26;10.90;99.90
13652;DHT22;6899;51.546;6.912;2022-11-02T06:12:55;10.90;99.90
13652;DHT22;6899;51.546;6.912;2022-11-02T06:15:22;10.90;99.90
13652;DHT22;6899;51.546;6.912;2022-11-02T06:17:49;10.90;99.90
13652;DHT22;6899;51.546;6.912;2022-11-02T06:20:17;11.00;99.90
13652;DHT22;6899;51.546;6.912;2022-11-02T06:22:44;11.20;99.90
13652;DHT22;6899;51.546;6.912;2022-11-02T06:25:11;11.20;99.90
13652;DHT22;6899;51.546;6.912;2022-11-02T06:27:39;11.20;99.90
13652;DHT22;6899;51.546;6.912;2022-11-02T06:30:09;11.40;99.90
13652;DHT22;6899;51.546;6.912;2022-11-02T06:32:37;11.60;99.90
13652;DHT22;6899;51.546;6.912;2022-11-02T06:35:07;11.70;99.90
13652;DHT22;6899;51.546;6.912;2022-11-02T06:37:34;11.70;99.90
13652;DHT22;6899;51.546;6.912;2022-11-02T06:40:01;11.70;99.90
13652;DHT22;6899;51.546;6.912;2022-11-02T06:42:28;11.60;99.90
13652;DHT22;6899;51.546;6.912;2022-11-02T06:44:55;11.70;99.90
13652;DHT22;6899;51.546;6.912;2022-11-02T06:47:30;11.80;99.90
13652;DHT22;6899;51.546;6.912;2022-11-02T06:49:57;11.80;99.90
13652;DHT22;6899;51.546;6.912;2022-11-02T06:52:24;11.80;99.90
13652;DHT22;6899;51.546;6.912;2022-11-02T06:54:51;11.80;99.90
13652;DHT22;6899;51.546;6.912;2022-11-02T06:57:18;11.70;99.90
13652;DHT22;6899;51.546;6.912;2022-11-02T06:59:45;11.60;99.90
13652;DHT22;6899;51.546;6.912;2022-11-02T07:02:12;11.60;99.90
13652;DHT22;6899;51.546;6.912;2022-11-02T07:04:40;11.60;99.90
13652;DHT22;6899;51.546;6.912;2022-11-02T07:07:10;11.70;99.90
13652;DHT22;6899;51.546;6.912;2022-11-02T07:09:36;11.80;99.90
13652;DHT22;6899;51.546;6.912;2022-11-02T07:12:07;11.90;99.90
13652;DHT22;6899;51.546;6.912;2022-11-02T07:14:34;12.00;99.90
13652;DHT22;6899;51.546;6.912;2022-11-02T07:17:00;12.10;99.90
13652;DHT22;6899;51.546;6.912;2022-11-02T07:19:27;12.10;99.90
13652;DHT22;6899;51.546;6.912;2022-11-02T07:21:56;12.20;99.90
13652;DHT22;6899;51.546;6.912;2022-11-02T07:24:23;12.20;99.90
13652;DHT22;6899;51.546;6.912;2022-11-02T07:26:50;12.20;99.90
13652;DHT22;6899;51.546;6.912;2022-11-02T07:29:17;12.20;99.90
13652;DHT22;6899;51.546;6.912;2022-11-02T07:31:44;12.30;99.90
13652;DHT22;6899;51.546;6.912;2022-11-02T07:34:12;12.40;99.90
13652;DHT22;6899;51.546;6.912;2022-11-02T07:36:42;12.60;99.90
13652;DHT22;6899;51.546;6.912;2022-11-02T07:39:13;12.70;99.90
13652;DHT22;6899;51.546;6.912;2022-11-02T07:41:39;12.80;99.90
13652;DHT22;6899;51.546;6.912;2022-11-02T07:44:06;12.90;99.90
13652;DHT22;6899;51.546;6.912;2022-11-02T07:46:33;12.90;99.90
13652;DHT22;6899;51.546;6.912;2022-11-02T07:49:03;12.90;99.90
13652;DHT22;6899;51.546;6.912;2022-11-02T07:51:30;12.80;99.90
13652;DHT22;6899;51.546;6.912;2022-11-02T07:54:03;12.70;99.90
13652;DHT22;6899;51.546;6.912;2022-11-02T07:56:31;12.60;99.90
13652;DHT22;6899;51.546;6.912;2022-11-02T07:58:58;12.40;99.90
13652;DHT22;6899;51.546;6.912;2022-11-02T08:01:25;12.30;99.90
13652;DHT22;6899;51.546;6.912;2022-11-02T08:03:55;12.30;99.90
13652;DHT22;6899;51.546;6.912;2022-11-02T08:06:22;12.30;99.90
13652;DHT22;6899;51.546;6.912;2022-11-02T08:08:48;12.30;99.90
13652;DHT22;6899;51.546;6.912;2022-11-02T08:11:15;12.40;99.90
13652;DHT22;6899;51.546;6.912;2022-11-02T08:13:43;12.40;99.90
13652;DHT22;6899;51.546;6.912;2022-11-02T08:16:10;12.60;99.90
13652;DHT22;6899;51.546;6.912;2022-11-02T08:18:37;12.80;99.90
13652;DHT22;6899;51.546;6.912;2022-11-02T08:21:05;12.80;99.90
13652;DHT22;6899;51.546;6.912;2022-11-02T08:23:32;12.90;99.90
13652;DHT22;6899;51.546;6.912;2022-11-02T08:25:59;12.90;99.90
13652;DHT22;6899;51.546;6.912;2022-11-02T08:28:28;13.00;99.90
13652;DHT22;6899;51.546;6.912;2022-11-02T08:30:57;12.90;99.90
13652;DHT22;6899;51.546;6.912;2022-11-02T08:33:24;12.90;99.90
13652;DHT22;6899;51.546;6.912;2022-11-02T08:35:51;13.00;99.90
13652;DHT22;6899;51.546;6.912;2022-11-02T08:38:19;13.10;99.90
13652;DHT22;6899;51.546;6.912;2022-11-02T08:40:47;13.20;99.90
13652;DHT22;6899;51.546;6.912;2022-11-02T08:43:17;13.20;99.90
13652;DHT22;6899;51.546;6.912;2022-11-02T08:45:47;13.20;99.90
13652;DHT22;6899;51.546;6.912;2022-11-02T08:48:15;13.10;99.90
13652;DHT22;6899;51.546;6.912;2022-11-02T08:50:42;13.00;99.90
13652;DHT22;6899;51.546;6.912;2022-11-02T08:53:09;12.90;99.90
13652;DHT22;6899;51.546;6.912;2022-11-02T08:55:39;12.80;99.90
13652;DHT22;6899;51.546;6.912;2022-11-02T08:58:06;12.80;99.90
13652;DHT22;6899;51.546;6.912;2022-11-02T09:00:33;13.00;99.90
13652;DHT22;6899;51.546;6.912;2022-11-02T09:03:02;13.20;99.90
13652;DHT22;6899;51.546;6.912;2022-11-02T09:05:32;13.20;99.90
13652;DHT22;6899;51.546;6.912;2022-11-02T09:08:00;13.10;99.90
13652;DHT22;6899;51.546;6.912;2022-11-02T09:10:29;13.00;99.90
13652;DHT22;6899;51.546;6.912;2022-11-02T09:12:58;13.00;99.90
13652;DHT22;6899;51.546;6.912;2022-11-02T09:15:25;13.00;99.90
13652;DHT22;6899;51.546;6.912;2022-11-02T09:17:53;13.20;99.90
13652;DHT22;6899;51.546;6.912;2022-11-02T09:20:21;13.50;99.90
13652;DHT22;6899;51.546;6.912;2022-11-02T09:22:52;13.50;99.90
13652;DHT22;6899;51.546;6.912;2022-11-02T09:25:28;13.70;99.90
13652;DHT22;6899;51.546;6.912;2022-11-02T09:27:59;13.80;99.90
13652;DHT22;6899;51.546;6.912;2022-11-02T09:30:26;14.20;99.90
13652;DHT22;6899;51.546;6.912;2022-11-02T09:32:54;14.40;99.90
13652;DHT22;6899;51.546;6.912;2022-11-02T09:35:21;14.30;99.90
13652;DHT22;6899;51.546;6.912;2022-11-02T09:37:48;14.30;99.90
13652;DHT22;6899;51.546;6.912;2022-11-02T09:40:20;14.10;99.90
13652;DHT22;6899;51.546;6.912;2022-11-02T09:42:57;13.90;99.90
13652;DHT22;6899;51.546;6.912;2022-11-02T09:45:32;14.20;99.90
13652;DHT22;6899;51.546;6.912;2022-11-02T09:48:03;14.60;99.90
13652;DHT22;6899;51.546;6.912;2022-11-02T09:50:48;15.00;99.90
13652;DHT22;6899;51.546;6.912;2022-11-02T09:53:22;15.20;99.90
13652;DHT22;6899;51.546;6.912;2022-11-02T09:55:57;15.60;99.90
13652;DHT22;6899;51.546;6.912;2022-11-02T09:58:31;15.30;99.90
13652;DHT22;6899;51.546;6.912;2022-11-02T10:01:07;15.20;99.90
13652;DHT22;6899;51.546;6.912;2022-11-02T10:03:46;14.90;99.90
13652;DHT22;6899;51.546;6.912;2022-11-02T10:06:18;14.80;99.90
13652;DHT22;6899;51.546;6.912;2022-11-02T10:08:51;14.60;99.90
13652;DHT22;6899;51.546;6.912;2022-11-02T10:11:35;14.50;99.90
13652;DHT22;6899;51.546;6.912;2022-11-02T10:14:09;14.60;99.90
13652;DHT22;6899;51.546;6.912;2022-11-02T10:16:41;14.80;99.90
13652;DHT22;6899;51.546;6.912;2022-11-02T10:19:14;15.00;99.90
13652;DHT22;6899;51.546;6.912;2022-11-02T10:21:44;15.10;99.90
13652;DHT22;6899;51.546;6.912;2022-11-02T10:24:22;14.80;99.90
13652;DHT22;6899;51.546;6.912;2022-11-02T10:26:52;14.50;99.90
13652;DHT22;6899;51.546;6.912;2022-11-02T10:29:29;14.30;99.90
13652;DHT22;6899;51.546;6.912;2022-11-02T10:32:00;14.10;99.90
13652;DHT22;6899;51.546;6.912;2022-11-02T10:34:33;13.80;99.90
13652;DHT22;6899;51.546;6.912;2022-11-02T10:37:11;13.90;99.90
13652;DHT22;6899;51.546;6.912;2022-11-02T10:39:46;14.30;99.90
13652;DHT22;6899;51.546;6.912;2022-11-02T10:42:32;14.70;99.90
13652;DHT22;6899;51.546;6.912;2022-11-02T10:45:19;14.80;99.90
13652;DHT22;6899;51.546;6.912;2022-11-02T10:48:00;15.30;99.90
13652;DHT22;6899;51.546;6.912;2022-11-02T10:50:45;15.60;99.90
13652;DHT22;6899;51.546;6.912;2022-11-02T10:53:14;15.20;99.90
13652;DHT22;6899;51.546;6.912;2022-11-02T10:55:49;15.10;99.90
13652;DHT22;6899;51.546;6.912;2022-11-02T10:58:20;14.80;99.90
13652;DHT22;6899;51.546;6.912;2022-11-02T11:00:49;14.60;99.90
13652;DHT22;6899;51.546;6.912;2022-11-02T11:03:17;14.60;99.90
13652;DHT22;6899;51.546;6.912;2022-11-02T11:05:56;14.80;99.90
13652;DHT22;6899;51.546;6.912;2022-11-02T11:08:34;14.90;99.90
13652;DHT22;6899;51.546;6.912;2022-11-02T11:11:14;14.80;99.90
13652;DHT22;6899;51.546;6.912;2022-11-02T11:13:45;14.80;99.90
13652;DHT22;6899;51.546;6.912;2022-11-02T11:16:30;15.00;99.90
13652;DHT22;6899;51.546;6.912;2022-11-02T11:18:58;15.20;99.90
13652;DHT22;6899;51.546;6.912;2022-11-02T11:21:35;15.00;99.90
13652;DHT22;6899;51.546;6.912;2022-11-02T11:24:29;14.60;99.90
13652;DHT22;6899;51.546;6.912;2022-11-02T11:29:49;14.50;99.90
13652;DHT22;6899;51.546;6.912;2022-11-02T11:32:19;14.80;99.90
13652;DHT22;6899;51.546;6.912;2022-11-02T11:34:54;15.10;99.90
13652;DHT22;6899;51.546;6.912;2022-11-02T11:37:22;15.20;99.90
13652;DHT22;6899;51.546;6.912;2022-11-02T11:39:52;15.10;99.90
13652;DHT22;6899;51.546;6.912;2022-11-02T11:42:23;15.00;99.90
13652;DHT22;6899;51.546;6.912;2022-11-02T11:44:57;15.00;99.90
13652;DHT22;6899;51.546;6.912;2022-11-02T11:47:26;14.70;99.90
13652;DHT22;6899;51.546;6.912;2022-11-02T11:49:54;14.80;99.90
13652;DHT22;6899;51.546;6.912;2022-11-02T11:52:26;15.20;99.90
13652;DHT22;6899;51.546;6.912;2022-11-02T11:54:55;15.80;99.90
13652;DHT22;6899;51.546;6.912;2022-11-02T11:57:25;16.00;98.50
13652;DHT22;6899;51.546;6.912;2022-11-02T11:59:55;15.80;98.90
13652;DHT22;6899;51.546;6.912;2022-11-02T12:02:25;15.90;99.10
13652;DHT22;6899;51.546;6.912;2022-11-02T12:05:01;16.10;98.20
13652;DHT22;6899;51.546;6.912;2022-11-02T12:10:39;16.30;96.00
13652;DHT22;6899;51.546;6.912;2022-11-02T12:13:17;16.10;95.50
13652;DHT22;6899;51.546;6.912;2022-11-02T12:16:00;15.80;95.60
13652;DHT22;6899;51.546;6.912;2022-11-02T12:18:56;15.50;96.10
13652;DHT22;6899;51.546;6.912;2022-11-02T12:21:39;15.60;96.60
13652;DHT22;6899;51.546;6.912;2022-11-02T12:24:30;15.40;95.90
13652;DHT22;6899;51.546;6.912;2022-11-02T12:27:09;15.50;96.00
13652;DHT22;6899;51.546;6.912;2022-11-02T12:29:58;15.50;95.90
13652;DHT22;6899;51.546;6.912;2022-11-02T12:35:37;16.00;96.40
13652;DHT22;6899;51.546;6.912;2022-11-02T12:38:20;16.10;95.60
13652;DHT22;6899;51.546;6.912;2022-11-02T12:40:56;16.00;94.80
13652;DHT22;6899;51.546;6.912;2022-11-02T12:43:38;15.80;95.10
13652;DHT22;6899;51.546;6.912;2022-11-02T12:46:13;15.80;94.60
13652;DHT22;6899;51.546;6.912;2022-11-02T12:48:51;16.00;96.00
13652;DHT22;6899;51.546;6.912;2022-11-02T12:51:22;16.10;94.40
13652;DHT22;6899;51.546;6.912;2022-11-02T12:53:54;16.10;94.10
13652;DHT22;6899;51.546;6.912;2022-11-02T12:56:24;16.30;94.10
13652;DHT22;6899;51.546;6.912;2022-11-02T12:58:52;16.30;94.40
13652;DHT22;6899;51.546;6.912;2022-11-02T13:01:23;16.40;94.00
13652;DHT22;6899;51.546;6.912;2022-11-02T13:03:56;15.90;94.50
13652;DHT22;6899;51.546;6.912;2022-11-02T13:06:30;15.60;94.80
13652;DHT22;6899;51.546;6.912;2022-11-02T13:09:03;15.30;96.00
13652;DHT22;6899;51.546;6.912;2022-11-02T13:11:34;15.00;97.30
13652;DHT22;6899;51.546;6.912;2022-11-02T13:14:05;15.20;98.50
13652;DHT22;6899;51.546;6.912;2022-11-02T13:16:39;15.40;98.20
13652;DHT22;6899;51.546;6.912;2022-11-02T13:19:15;15.50;97.00
13652;DHT22;6899;51.546;6.912;2022-11-02T13:21:47;15.70;96.20
13652;DHT22;6899;51.546;6.912;2022-11-02T13:24:17;15.50;96.60
13652;DHT22;6899;51.546;6.912;2022-11-02T13:26:47;15.50;96.60
13652;DHT22;6899;51.546;6.912;2022-11-02T13:29:18;15.30;97.50
13652;DHT22;6899;51.546;6.912;2022-11-02T13:31:49;15.30;97.20
13652;DHT22;6899;51.546;6.912;2022-11-02T13:34:24;15.20;98.20
13652;DHT22;6899;51.546;6.912;2022-11-02T13:36:54;15.10;98.80
13652;DHT22;6899;51.546;6.912;2022-11-02T13:39:28;15.00;98.60
13652;DHT22;6899;51.546;6.912;2022-11-02T13:42:22;14.90;97.90
13652;DHT22;6899;51.546;6.912;2022-11-02T13:45:13;14.80;99.00
13652;DHT22;6899;51.546;6.912;2022-11-02T13:48:04;14.60;98.80
13652;DHT22;6899;51.546;6.912;2022-11-02T13:50:40;14.60;99.90
13652;DHT22;6899;51.546;6.912;2022-11-02T13:53:13;14.60;99.90
13652;DHT22;6899;51.546;6.912;2022-11-02T13:55:49;14.70;99.90
13652;DHT22;6899;51.546;6.912;2022-11-02T13:58:22;14.80;99.90
13652;DHT22;6899;51.546;6.912;2022-11-02T14:00:49;15.20;99.90
13652;DHT22;6899;51.546;6.912;2022-11-02T14:03:21;15.40;99.90
13652;DHT22;6899;51.546;6.912;2022-11-02T14:05:53;15.30;99.90
13652;DHT22;6899;51.546;6.912;2022-11-02T14:08:32;15.20;99.90
13652;DHT22;6899;51.546;6.912;2022-11-02T14:11:04;15.20;99.90
13652;DHT22;6899;51.546;6.912;2022-11-02T14:16:43;14.80;99.90
13652;DHT22;6899;51.546;6.912;2022-11-02T14:19:21;14.60;99.90
13652;DHT22;6899;51.546;6.912;2022-11-02T14:22:10;14.50;99.90
13652;DHT22;6899;51.546;6.912;2022-11-02T14:25:14;14.50;99.90
13652;DHT22;6899;51.546;6.912;2022-11-02T14:27:42;14.70;99.90
13652;DHT22;6899;51.546;6.912;2022-11-02T14:30:42;14.90;99.90
13652;DHT22;6899;51.546;6.912;2022-11-02T14:36:18;14.80;99.90
13652;DHT22;6899;51.546;6.912;2022-11-02T14:39:02;14.60;99.90
13652;DHT22;6899;51.546;6.912;2022-11-02T14:41:42;14.50;99.90
13652;DHT22;6899;51.546;6.912;2022-11-02T14:47:19;14.20;99.90
13652;DHT22;6899;51.546;6.912;2022-11-02T14:49:48;14.10;99.90
13652;DHT22;6899;51.546;6.912;2022-11-02T14:52:25;14.10;99.90
13652;DHT22;6899;51.546;6.912;2022-11-02T14:54:59;14.00;99.90
13652;DHT22;6899;51.546;6.912;2022-11-02T14:57:29;13.90;99.90
13652;DHT22;6899;51.546;6.912;2022-11-02T15:00:02;13.80;99.90
13652;DHT22;6899;51.546;6.912;2022-11-02T15:02:33;13.60;99.90
13652;DHT22;6899;51.546;6.912;2022-11-02T15:05:04;13.50;99.90
13652;DHT22;6899;51.546;6.912;2022-11-02T15:07:34;13.40;99.90
13652;DHT22;6899;51.546;6.912;2022-11-02T15:10:05;13.30;99.90
13652;DHT22;6899;51.546;6.912;2022-11-02T15:12:35;13.10;99.90
13652;DHT22;6899;51.546;6.912;2022-11-02T15:15:30;13.00;99.90
13652;DHT22;6899;51.546;6.912;2022-11-02T15:18:12;12.90;99.90
13652;DHT22;6899;51.546;6.912;2022-11-02T15:20:42;12.80;99.90
13652;DHT22;6899;51.546;6.912;2022-11-02T15:23:20;12.70;99.90
13652;DHT22;6899;51.546;6.912;2022-11-02T15:25:53;12.60;99.90
13652;DHT22;6899;51.546;6.912;2022-11-02T15:28:23;12.40;99.90
13652;DHT22;6899;51.546;6.912;2022-11-02T15:30:52;12.30;99.90
13652;DHT22;6899;51.546;6.912;2022-11-02T15:33:32;12.10;99.90
13652;DHT22;6899;51.546;6.912;2022-11-02T15:36:00;12.00;99.90
13652;DHT22;6899;51.546;6.912;2022-11-02T15:38:28;11.90;99.90
13652;DHT22;6899;51.546;6.912;2022-11-02T15:41:06;11.90;99.90
13652;DHT22;6899;51.546;6.912;2022-11-02T15:44:02;11.70;99.90
13652;DHT22;6899;51.546;6.912;2022-11-02T15:46:42;11.60;99.90
13652;DHT22;6899;51.546;6.912;2022-11-02T15:49:25;11.60;99.90
13652;DHT22;6899;51.546;6.912;2022-11-02T15:52:00;11.60;99.90
13652;DHT22;6899;51.546;6.912;2022-11-02T15:54:49;11.40;99.90
13652;DHT22;6899;51.546;6.912;2022-11-02T15:57:30;11.30;99.90
13652;DHT22;6899;51.546;6.912;2022-11-02T16:00:11;11.20;99.90
13652;DHT22;6899;51.546;6.912;2022-11-02T16:02:39;11.20;99.90
13652;DHT22;6899;51.546;6.912;2022-11-02T16:05:17;11.10;99.90
13652;DHT22;6899;51.546;6.912;2022-11-02T16:07:50;11.00;99.90
13652;DHT22;6899;51.546;6.912;2022-11-02T16:10:27;11.10;99.90
13652;DHT22;6899;51.546;6.912;2022-11-02T16:13:13;11.00;99.90
13652;DHT22;6899;51.546;6.912;2022-11-02T16:15:41;10.90;99.90
13652;DHT22;6899;51.546;6.912;2022-11-02T16:18:22;10.70;99.90
13652;DHT22;6899;51.546;6.912;2022-11-02T16:20:53;10.50;99.90
13652;DHT22;6899;51.546;6.912;2022-11-02T16:23:23;10.40;99.90
13652;DHT22;6899;51.546;6.912;2022-11-02T16:25:51;10.20;99.90
13652;DHT22;6899;51.546;6.912;2022-11-02T16:28:23;10.30;99.90
13652;DHT22;6899;51.546;6.912;2022-11-02T16:31:01;10.20;99.90
13652;DHT22;6899;51.546;6.912;2022-11-02T16:33:30;10.00;99.90